Time;durP1;ratioP1;P1;durP2;ratioP2;P2;SDS_P1;SDS_P2;PMS_P1;PMS_P2;Temp;Humidity;BMP_temperature;BMP_pressure;BME280_temperature;BME280_humidity;BME280_pressure;Samples;Min_cycle;Max_cycle;Signal;HPM_P1;HPM_P2
2023/12/12 00:01:35;;;;;;;1546.05;999.90;;;;;;;;;;5053659;28;20493;-68
2023/12/12 00:04:02;;;;;;;1538.22;999.90;;;;;;;;;;5053481;28;20028;-67
2023/12/12 00:06:29;;;;;;;1538.28;999.90;;;;;;;;;;5053646;28;20083;-68
2023/12/12 00:08:56;;;;;;;1546.90;999.90;;;;;;;;;;5051073;28;20028;-69
2023/12/12 00:11:22;;;;;;;1555.70;999.90;;;;;;;;;;5051456;28;20016;-68
2023/12/12 00:13:49;;;;;;;1547.47;999.90;;;;;;;;;;5053528;28;20025;-70
2023/12/12 00:16:17;;;;;;;1547.55;999.90;;;;;;;;;;5050795;28;20029;-68
2023/12/12 00:18:43;;;;;;;1542.25;999.90;;;;;;;;;;5053677;28;20035;-68
2023/12/12 00:21:10;;;;;;;1534.90;999.90;;;;;;;;;;5053629;28;20469;-68
2023/12/12 00:23:36;;;;;;;1531.75;999.90;;;;;;;;;;5053591;28;20080;-69
2023/12/12 00:26:07;;;;;;;1509.40;999.90;;;;;;;;;;5053393;28;20028;-69
2023/12/12 00:28:34;;;;;;;1515.05;999.90;;;;;;;;;;5054135;28;20481;-69
2023/12/12 00:31:01;;;;;;;1528.13;999.90;;;;;;;;;;5053018;28;20037;-66
2023/12/12 00:33:29;;;;;;;1546.32;999.90;;;;;;;;;;5053519;28;20385;-68
2023/12/12 00:35:56;;;;;;;1550.55;999.90;;;;;;;;;;5053557;28;20056;-69
2023/12/12 00:38:28;;;;;;;1539.35;999.90;;;;;;;;;;5053432;28;20017;-69
2023/12/12 00:40:56;;;;;;;1538.18;999.90;;;;;;;;;;5053453;28;20037;-67
2023/12/12 00:43:24;;;;;;;1586.35;999.90;;;;;;;;;;5053298;28;20104;-67
2023/12/12 00:45:51;;;;;;;1573.35;999.90;;;;;;;;;;5053164;28;20033;-65
2023/12/12 00:48:18;;;;;;;1575.00;999.90;;;;;;;;;;5053504;28;20021;-66
2023/12/12 00:50:45;;;;;;;1569.20;999.90;;;;;;;;;;5053410;28;20025;-67
2023/12/12 00:53:12;;;;;;;1563.57;999.90;;;;;;;;;;5053308;28;20021;-68
2023/12/12 00:55:38;;;;;;;1560.18;999.90;;;;;;;;;;5053129;28;20021;-68
2023/12/12 00:58:05;;;;;;;1556.00;999.90;;;;;;;;;;5048259;28;20029;-67
2023/12/12 01:00:32;;;;;;;1556.80;999.90;;;;;;;;;;5041238;28;20022;-68
2023/12/12 01:02:58;;;;;;;1545.38;999.90;;;;;;;;;;5033160;28;20017;-66
2023/12/12 01:05:25;;;;;;;1567.53;999.90;;;;;;;;;;5033453;28;20025;-69
2023/12/12 01:07:51;;;;;;;1573.25;999.90;;;;;;;;;;5033318;28;20463;-66
2023/12/12 01:10:18;;;;;;;1549.47;999.90;;;;;;;;;;5033275;28;20022;-66
2023/12/12 01:12:44;;;;;;;1562.63;999.90;;;;;;;;;;5039831;28;20071;-69
2023/12/12 01:15:11;;;;;;;1563.32;999.90;;;;;;;;;;5053520;28;20531;-66
2023/12/12 01:17:38;;;;;;;1559.82;999.90;;;;;;;;;;5052566;28;20402;-66
2023/12/12 01:20:07;;;;;;;1562.82;999.90;;;;;;;;;;5053050;28;20028;-66
2023/12/12 01:22:34;;;;;;;1529.45;999.90;;;;;;;;;;5053143;28;20033;-65
2023/12/12 01:25:01;;;;;;;1567.82;999.90;;;;;;;;;;5052780;28;20048;-66
2023/12/12 01:27:27;;;;;;;1570.78;999.90;;;;;;;;;;5053062;28;20076;-66
2023/12/12 01:29:55;;;;;;;1568.45;999.90;;;;;;;;;;5053064;28;20024;-66
2023/12/12 01:32:22;;;;;;;1567.65;999.90;;;;;;;;;;5052822;28;20025;-67
2023/12/12 01:34:48;;;;;;;1557.38;999.90;;;;;;;;;;5053217;28;20037;-66
2023/12/12 01:37:15;;;;;;;1565.22;999.90;;;;;;;;;;5053215;28;20053;-66
2023/12/12 01:39:41;;;;;;;1570.90;999.90;;;;;;;;;;5052825;28;20029;-66
2023/12/12 01:42:08;;;;;;;1572.55;999.90;;;;;;;;;;5053254;28;20452;-67
2023/12/12 01:44:35;;;;;;;1581.03;999.90;;;;;;;;;;5056003;28;20302;-67
2023/12/12 01:47:01;;;;;;;1551.13;999.90;;;;;;;;;;5057103;28;20424;-70
2023/12/12 01:49:28;;;;;;;1569.40;999.90;;;;;;;;;;5056795;28;20021;-69
2023/12/12 01:51:55;;;;;;;1510.15;999.90;;;;;;;;;;5056791;28;20064;-66
2023/12/12 01:54:21;;;;;;;1574.43;999.90;;;;;;;;;;5056532;28;20027;-70
2023/12/12 01:56:50;;;;;;;1563.63;999.90;;;;;;;;;;5056530;28;20017;-69
2023/12/12 01:59:17;;;;;;;1554.30;999.90;;;;;;;;;;5056779;28;20162;-69
2023/12/12 02:01:44;;;;;;;1570.05;999.90;;;;;;;;;;5056337;28;20025;-70
2023/12/12 02:04:11;;;;;;;1553.40;999.90;;;;;;;;;;5056211;28;20112;-69
2023/12/12 02:06:39;;;;;;;1554.70;999.90;;;;;;;;;;5056336;28;20087;-69
2023/12/12 02:09:05;;;;;;;1585.90;999.90;;;;;;;;;;5056140;28;20051;-69
2023/12/12 02:11:32;;;;;;;1576.53;999.90;;;;;;;;;;5050391;28;20033;-70
2023/12/12 02:13:59;;;;;;;1570.43;999.90;;;;;;;;;;5056874;28;20024;-69
2023/12/12 02:16:25;;;;;;;1568.78;999.90;;;;;;;;;;5055985;28;20397;-68
2023/12/12 02:18:52;;;;;;;1570.97;999.90;;;;;;;;;;5056109;28;20025;-69
2023/12/12 02:21:20;;;;;;;1550.15;999.90;;;;;;;;;;5040023;28;20386;-68
2023/12/12 02:23:49;;;;;;;1566.07;999.90;;;;;;;;;;5036088;28;20041;-69
2023/12/12 02:26:16;;;;;;;1576.93;999.90;;;;;;;;;;5050821;28;20482;-68
2023/12/12 02:28:43;;;;;;;1561.97;999.90;;;;;;;;;;5055993;28;20025;-69
2023/12/12 02:31:10;;;;;;;1557.30;999.90;;;;;;;;;;5055644;28;20099;-70
2023/12/12 02:33:37;;;;;;;1572.97;999.90;;;;;;;;;;5055827;28;20114;-70
2023/12/12 02:36:03;;;;;;;1582.85;999.90;;;;;;;;;;5055770;28;20025;-70
2023/12/12 02:38:30;;;;;;;1595.90;999.90;;;;;;;;;;5055762;28;20482;-69
2023/12/12 02:40:56;;;;;;;1579.22;999.90;;;;;;;;;;5040885;28;20087;-68
2023/12/12 02:43:23;;;;;;;1571.93;999.90;;;;;;;;;;5035486;28;20080;-68
2023/12/12 02:45:50;;;;;;;1573.00;999.90;;;;;;;;;;5035729;28;20104;-67
2023/12/12 02:48:17;;;;;;;1574.63;999.90;;;;;;;;;;5035753;28;20021;-71
2023/12/12 02:50:43;;;;;;;1558.95;999.90;;;;;;;;;;5035613;28;20021;-70
2023/12/12 02:53:10;;;;;;;1576.63;999.90;;;;;;;;;;5035868;28;20021;-67
2023/12/12 02:55:36;;;;;;;1563.75;999.90;;;;;;;;;;5034842;28;20037;-67
2023/12/12 02:58:03;;;;;;;1574.30;999.90;;;;;;;;;;5035746;28;20026;-67
2023/12/12 03:00:30;;;;;;;1562.57;999.90;;;;;;;;;;5035515;28;20053;-68
2023/12/12 03:02:56;;;;;;;1576.07;999.90;;;;;;;;;;5035253;28;20079;-67
2023/12/12 03:05:23;;;;;;;1535.63;999.90;;;;;;;;;;5035514;28;20029;-68
2023/12/12 03:07:49;;;;;;;1572.63;999.90;;;;;;;;;;5035097;28;20100;-66
2023/12/12 03:10:16;;;;;;;1566.28;999.90;;;;;;;;;;5035348;28;20025;-68
2023/12/12 03:12:43;;;;;;;1564.22;999.90;;;;;;;;;;5035580;28;20044;-67
2023/12/12 03:15:10;;;;;;;1560.53;999.90;;;;;;;;;;5035376;28;20033;-67
2023/12/12 03:17:36;;;;;;;1553.20;999.90;;;;;;;;;;5034801;28;20487;-67
2023/12/12 03:20:03;;;;;;;1560.68;999.90;;;;;;;;;;5037966;28;20360;-68
2023/12/12 03:22:29;;;;;;;1558.03;999.90;;;;;;;;;;5043974;28;20044;-69
2023/12/12 03:24:56;;;;;;;1561.03;999.90;;;;;;;;;;5034873;28;20029;-68
2023/12/12 03:27:23;;;;;;;1576.70;999.90;;;;;;;;;;5035122;28;20088;-67
2023/12/12 03:29:49;;;;;;;1567.07;999.90;;;;;;;;;;5035528;28;20025;-68
2023/12/12 03:32:16;;;;;;;1562.75;999.90;;;;;;;;;;5035770;28;20103;-69
2023/12/12 03:34:43;;;;;;;1556.55;999.90;;;;;;;;;;5053210;28;20079;-68
2023/12/12 03:37:09;;;;;;;1569.40;999.90;;;;;;;;;;5043887;28;20079;-67
2023/12/12 03:39:37;;;;;;;1571.75;999.90;;;;;;;;;;5043037;28;20601;-67
2023/12/12 03:42:04;;;;;;;1564.40;999.90;;;;;;;;;;5050451;28;20478;-68
2023/12/12 03:44:31;;;;;;;1567.68;999.90;;;;;;;;;;5053509;28;20136;-66
2023/12/12 03:46:57;;;;;;;1557.30;999.90;;;;;;;;;;5052393;28;20039;-67
2023/12/12 03:49:24;;;;;;;1570.10;999.90;;;;;;;;;;5054408;28;20474;-66
2023/12/12 03:51:50;;;;;;;1556.63;999.90;;;;;;;;;;5054177;28;20017;-66
2023/12/12 03:54:17;;;;;;;1555.28;999.90;;;;;;;;;;5043078;28;20024;-65
2023/12/12 03:56:43;;;;;;;1581.45;999.90;;;;;;;;;;5044269;28;20017;-66
2023/12/12 03:59:10;;;;;;;1571.10;999.90;;;;;;;;;;5044605;28;20025;-69
2023/12/12 04:01:37;;;;;;;1540.25;999.90;;;;;;;;;;5042688;28;20025;-67
2023/12/12 04:04:03;;;;;;;1539.25;999.90;;;;;;;;;;5044075;28;20417;-68
2023/12/12 04:06:30;;;;;;;1534.60;999.90;;;;;;;;;;5046290;28;20090;-68
2023/12/12 04:08:57;;;;;;;1583.88;999.90;;;;;;;;;;5053624;28;20027;-68
2023/12/12 04:11:23;;;;;;;1561.53;999.90;;;;;;;;;;5052128;28;20017;-69
2023/12/12 04:13:51;;;;;;;1558.45;999.90;;;;;;;;;;5053852;28;20023;-67
2023/12/12 04:16:17;;;;;;;1530.88;999.90;;;;;;;;;;5050808;28;20025;-67
2023/12/12 04:18:44;;;;;;;1565.47;999.90;;;;;;;;;;5053395;28;20498;-66
2023/12/12 04:21:10;;;;;;;1579.18;999.90;;;;;;;;;;5053569;28;20025;-66
2023/12/12 04:23:42;;;;;;;1548.22;999.90;;;;;;;;;;5053313;28;20378;-65
2023/12/12 04:26:09;;;;;;;1577.00;999.90;;;;;;;;;;5042123;28;20025;-65
2023/12/12 04:28:36;;;;;;;1560.70;999.90;;;;;;;;;;5053439;28;20025;-66
2023/12/12 04:31:02;;;;;;;1487.25;999.90;;;;;;;;;;5052254;28;20013;-67
2023/12/12 04:33:29;;;;;;;1460.97;999.90;;;;;;;;;;5053154;28;20111;-66
2023/12/12 04:35:56;;;;;;;1453.82;999.90;;;;;;;;;;5043347;28;20105;-65
2023/12/12 04:38:22;;;;;;;1585.40;999.90;;;;;;;;;;5043997;28;20536;-65
2023/12/12 04:40:49;;;;;;;1565.47;999.90;;;;;;;;;;5042073;28;20021;-65
2023/12/12 04:43:16;;;;;;;1545.05;999.90;;;;;;;;;;5052986;28;20115;-64
2023/12/12 04:45:42;;;;;;;1570.28;999.90;;;;;;;;;;5053105;28;20027;-64
2023/12/12 04:48:09;;;;;;;1579.38;999.90;;;;;;;;;;5043128;28;20071;-64
2023/12/12 04:50:36;;;;;;;1583.95;999.90;;;;;;;;;;5053573;28;20021;-65
2023/12/12 04:53:03;;;;;;;1578.55;999.90;;;;;;;;;;5042027;28;20030;-65
2023/12/12 04:55:30;;;;;;;1572.65;999.90;;;;;;;;;;5042177;28;20536;-64
2023/12/12 04:57:57;;;;;;;1571.97;999.90;;;;;;;;;;5043447;28;20104;-65
2023/12/12 05:00:23;;;;;;;1537.43;999.90;;;;;;;;;;5044296;28;20383;-64
2023/12/12 05:02:50;;;;;;;1579.10;999.90;;;;;;;;;;5046709;28;20127;-65
2023/12/12 05:05:16;;;;;;;1567.45;999.90;;;;;;;;;;5051782;28;20397;-64
2023/12/12 05:07:43;;;;;;;1561.70;999.90;;;;;;;;;;5053450;28;20075;-64
2023/12/12 05:10:10;;;;;;;1562.28;999.90;;;;;;;;;;5053108;28;20109;-64
2023/12/12 05:12:37;;;;;;;1568.70;999.90;;;;;;;;;;5053146;28;20474;-63
2023/12/12 05:15:04;;;;;;;1568.15;999.90;;;;;;;;;;5052345;28;20052;-63
2023/12/12 05:17:31;;;;;;;1550.60;999.90;;;;;;;;;;5043529;28;20029;-64
2023/12/12 05:19:59;;;;;;;1551.63;999.90;;;;;;;;;;5047363;28;20029;-64
2023/12/12 05:22:26;;;;;;;1544.63;999.90;;;;;;;;;;5044904;28;20036;-63
2023/12/12 05:24:53;;;;;;;1582.65;999.90;;;;;;;;;;5046596;28;20021;-65
2023/12/12 05:27:20;;;;;;;1561.65;999.90;;;;;;;;;;5055889;28;20355;-64
2023/12/12 05:29:47;;;;;;;1529.18;999.90;;;;;;;;;;5050727;28;20032;-66
2023/12/12 05:32:14;;;;;;;1582.78;999.90;;;;;;;;;;5053323;28;20039;-65
2023/12/12 05:34:40;;;;;;;1585.35;999.90;;;;;;;;;;5049634;28;20542;-66
2023/12/12 05:37:08;;;;;;;1588.22;999.90;;;;;;;;;;5050182;28;20465;-64
2023/12/12 05:39:34;;;;;;;1586.68;999.90;;;;;;;;;;5055903;28;20058;-65
2023/12/12 05:42:02;;;;;;;1581.20;999.90;;;;;;;;;;5055518;28;20028;-64
2023/12/12 05:44:29;;;;;;;1581.05;999.90;;;;;;;;;;5048783;28;20048;-64
2023/12/12 05:46:56;;;;;;;1583.65;999.90;;;;;;;;;;5050125;22;20079;-63
2023/12/12 05:49:23;;;;;;;1563.22;999.90;;;;;;;;;;5021174;28;20543;-63
2023/12/12 05:51:49;;;;;;;1572.18;999.90;;;;;;;;;;5020717;28;20044;-63
2023/12/12 05:54:16;;;;;;;1565.45;999.90;;;;;;;;;;5025071;28;20093;-65
2023/12/12 05:56:43;;;;;;;1585.47;999.90;;;;;;;;;;5026813;28;20030;-65
2023/12/12 05:59:10;;;;;;;1576.88;999.90;;;;;;;;;;5026973;28;20038;-65
2023/12/12 06:01:37;;;;;;;1562.22;999.90;;;;;;;;;;5027391;28;20025;-64
2023/12/12 06:04:07;;;;;;;1556.60;999.90;;;;;;;;;;5027834;28;20045;-65
2023/12/12 06:06:34;;;;;;;1457.60;999.90;;;;;;;;;;5027006;28;20399;-65
2023/12/12 06:09:00;;;;;;;1574.05;999.90;;;;;;;;;;5031356;28;20036;-67
2023/12/12 06:11:27;;;;;;;1543.85;999.90;;;;;;;;;;5030778;28;20068;-66
2023/12/12 06:13:55;;;;;;;1542.70;999.90;;;;;;;;;;5022602;28;20475;-67
2023/12/12 06:16:22;;;;;;;1538.90;999.90;;;;;;;;;;5016890;28;20038;-66
2023/12/12 06:18:48;;;;;;;1532.65;999.90;;;;;;;;;;5016926;28;20034;-67
2023/12/12 06:21:15;;;;;;;1523.05;999.90;;;;;;;;;;5016626;28;20045;-64
2023/12/12 06:23:42;;;;;;;1518.45;999.90;;;;;;;;;;5016573;28;20041;-62
2023/12/12 06:26:09;;;;;;;1545.70;999.90;;;;;;;;;;5017374;28;20040;-62
2023/12/12 06:28:35;;;;;;;1540.70;999.90;;;;;;;;;;5015986;28;20041;-62
2023/12/12 06:31:02;;;;;;;1533.32;999.90;;;;;;;;;;5032083;28;20414;-63
2023/12/12 06:33:29;;;;;;;1480.28;999.90;;;;;;;;;;5035777;28;20026;-63
2023/12/12 06:35:56;;;;;;;1529.43;999.90;;;;;;;;;;5035842;28;20029;-64
2023/12/12 06:38:23;;;;;;;1517.32;999.90;;;;;;;;;;5035768;28;20060;-65
2023/12/12 06:40:50;;;;;;;1550.75;999.90;;;;;;;;;;5035216;28;20087;-63
2023/12/12 06:43:16;;;;;;;1548.03;999.90;;;;;;;;;;5035459;28;20437;-64
2023/12/12 06:45:43;;;;;;;1533.00;999.90;;;;;;;;;;5034419;28;20124;-64
2023/12/12 06:48:10;;;;;;;1553.15;999.90;;;;;;;;;;5034994;28;20533;-64
2023/12/12 06:50:36;;;;;;;1530.38;999.90;;;;;;;;;;5032523;28;20022;-63
2023/12/12 06:53:03;;;;;;;1551.53;999.90;;;;;;;;;;5034454;28;20248;-61
2023/12/12 06:55:30;;;;;;;1542.13;999.90;;;;;;;;;;5034284;28;20029;-64
2023/12/12 06:57:57;;;;;;;1472.95;999.90;;;;;;;;;;5034372;28;20029;-65
2023/12/12 07:00:24;;;;;;;1546.47;999.90;;;;;;;;;;5034142;28;20116;-64
2023/12/12 07:02:51;;;;;;;1520.25;999.90;;;;;;;;;;5033967;28;20022;-64
2023/12/12 07:05:18;;;;;;;1553.72;999.90;;;;;;;;;;5034924;28;20359;-66
2023/12/12 07:07:45;;;;;;;1550.03;999.90;;;;;;;;;;5034524;28;20032;-64
2023/12/12 07:10:11;;;;;;;1531.25;999.90;;;;;;;;;;5034249;28;20029;-67
2023/12/12 07:12:38;;;;;;;1534.47;999.90;;;;;;;;;;5034472;28;20112;-65
2023/12/12 07:15:05;;;;;;;1540.70;999.90;;;;;;;;;;5034294;28;20036;-67
2023/12/12 07:17:31;;;;;;;1570.78;999.90;;;;;;;;;;5033919;28;20104;-69
2023/12/12 07:19:58;;;;;;;1561.88;999.90;;;;;;;;;;5034472;28;20040;-66
2023/12/12 07:22:25;;;;;;;1490.22;999.90;;;;;;;;;;5034460;28;20025;-66
2023/12/12 07:24:51;;;;;;;1556.72;999.90;;;;;;;;;;5034102;28;20025;-64
2023/12/12 07:27:18;;;;;;;1543.40;999.90;;;;;;;;;;5034523;28;20078;-63
2023/12/12 07:29:44;;;;;;;1526.03;999.90;;;;;;;;;;5034037;28;20382;-63
2023/12/12 07:32:11;;;;;;;1566.15;999.90;;;;;;;;;;5034233;28;20108;-63
2023/12/12 07:34:37;;;;;;;1567.85;999.90;;;;;;;;;;5034159;28;20026;-64
2023/12/12 07:37:05;;;;;;;1560.35;999.90;;;;;;;;;;5034742;28;20018;-63
2023/12/12 07:39:32;;;;;;;1585.57;999.90;;;;;;;;;;5034338;28;20032;-65
2023/12/12 07:41:59;;;;;;;1563.35;999.90;;;;;;;;;;5034277;28;20013;-65
2023/12/12 07:44:26;;;;;;;1537.80;999.90;;;;;;;;;;5034344;28;20033;-64
2023/12/12 07:46:52;;;;;;;1523.72;999.90;;;;;;;;;;5031295;28;20045;-64
2023/12/12 07:49:19;;;;;;;1540.75;999.90;;;;;;;;;;5034233;28;20021;-64
2023/12/12 07:51:46;;;;;;;1544.75;999.90;;;;;;;;;;5034011;28;20049;-63
2023/12/12 07:54:13;;;;;;;1545.05;999.90;;;;;;;;;;5031353;28;20018;-64
2023/12/12 07:56:39;;;;;;;1557.43;999.90;;;;;;;;;;5034095;28;20231;-63
2023/12/12 07:59:06;;;;;;;1552.22;999.90;;;;;;;;;;5033832;28;20030;-62
2023/12/12 08:01:33;;;;;;;1557.13;999.90;;;;;;;;;;5031437;28;20026;-62
2023/12/12 08:04:00;;;;;;;1476.88;999.90;;;;;;;;;;5033871;28;20521;-64
2023/12/12 08:06:27;;;;;;;1534.63;999.90;;;;;;;;;;5033604;28;20371;-64
2023/12/12 08:08:53;;;;;;;1570.32;999.90;;;;;;;;;;5032659;28;20025;-63
2023/12/12 08:11:24;;;;;;;1545.03;999.90;;;;;;;;;;5031183;28;20374;-64
2023/12/12 08:13:51;;;;;;;1544.68;999.90;;;;;;;;;;5033045;28;20071;-64
2023/12/12 08:16:17;;;;;;;1565.47;999.90;;;;;;;;;;5033199;28;20025;-65
2023/12/12 08:18:44;;;;;;;1567.65;999.90;;;;;;;;;;5032932;28;20093;-64
2023/12/12 08:21:10;;;;;;;1550.22;999.90;;;;;;;;;;5032109;28;20034;-62
2023/12/12 08:23:41;;;;;;;1552.82;999.90;;;;;;;;;;5032996;28;20026;-64
2023/12/12 08:26:08;;;;;;;1542.25;999.90;;;;;;;;;;5032744;28;20109;-63
2023/12/12 08:28:34;;;;;;;1542.90;999.90;;;;;;;;;;5033761;28;20057;-62
2023/12/12 08:31:01;;;;;;;1571.35;999.90;;;;;;;;;;5033356;28;20036;-64
2023/12/12 08:33:28;;;;;;;1577.50;999.90;;;;;;;;;;5033466;28;20018;-64
2023/12/12 08:35:54;;;;;;;1582.18;999.90;;;;;;;;;;5033313;28;20052;-64
2023/12/12 08:38:21;;;;;;;1561.93;999.90;;;;;;;;;;5033596;28;20021;-63
2023/12/12 08:40:48;;;;;;;1536.70;999.90;;;;;;;;;;5033478;28;20017;-64
2023/12/12 08:43:15;;;;;;;1523.93;999.90;;;;;;;;;;5033587;28;20060;-63
2023/12/12 08:45:44;;;;;;;1529.90;999.90;;;;;;;;;;5033782;28;20722;-65
2023/12/12 08:48:10;;;;;;;1544.45;999.90;;;;;;;;;;5033623;28;20021;-65
2023/12/12 08:50:37;;;;;;;1540.32;999.90;;;;;;;;;;5033637;28;20025;-62
2023/12/12 08:53:03;;;;;;;1537.65;999.90;;;;;;;;;;5033185;28;20553;-65
2023/12/12 08:55:31;;;;;;;1450.45;999.90;;;;;;;;;;5033128;28;20041;-65
2023/12/12 08:57:58;;;;;;;1522.90;999.90;;;;;;;;;;5033187;28;20028;-64
2023/12/12 09:00:24;;;;;;;1512.38;999.90;;;;;;;;;;5033472;28;20024;-64
2023/12/12 09:02:51;;;;;;;1538.07;999.90;;;;;;;;;;5032459;28;20033;-63
2023/12/12 09:05:18;;;;;;;1550.88;999.90;;;;;;;;;;5033524;28;20366;-64
2023/12/12 09:07:45;;;;;;;1541.97;999.90;;;;;;;;;;5033028;28;20565;-64
2023/12/12 09:10:11;;;;;;;1535.80;999.90;;;;;;;;;;5033103;28;20143;-63
2023/12/12 09:12:38;;;;;;;1545.38;999.90;;;;;;;;;;5030324;28;20045;-64
2023/12/12 09:15:05;;;;;;;1519.15;999.90;;;;;;;;;;5033155;28;20036;-64
2023/12/12 09:17:32;;;;;;;1563.15;999.90;;;;;;;;;;5032863;28;20489;-63
2023/12/12 09:20:00;;;;;;;1557.30;999.90;;;;;;;;;;5032935;28;20028;-63
2023/12/12 09:22:27;;;;;;;1532.85;999.90;;;;;;;;;;5032941;28;20029;-64
2023/12/12 09:24:54;;;;;;;1554.85;999.90;;;;;;;;;;5032658;28;20409;-64
2023/12/12 09:27:21;;;;;;;1550.18;999.90;;;;;;;;;;5032708;28;20022;-64
2023/12/12 09:29:47;;;;;;;1534.68;999.90;;;;;;;;;;5032060;28;20044;-63
2023/12/12 09:32:14;;;;;;;1507.25;999.90;;;;;;;;;;5032367;28;20113;-64
2023/12/12 09:34:41;;;;;;;1567.85;999.90;;;;;;;;;;5032645;28;20421;-63
2023/12/12 09:37:07;;;;;;;1557.88;999.90;;;;;;;;;;5031144;28;20021;-64
2023/12/12 09:39:34;;;;;;;1564.28;999.90;;;;;;;;;;5032162;28;20116;-63
2023/12/12 09:42:01;;;;;;;1559.70;999.90;;;;;;;;;;5032551;28;20442;-64
2023/12/12 09:44:30;;;;;;;1563.00;999.90;;;;;;;;;;5032340;28;20025;-63
2023/12/12 09:46:58;;;;;;;1558.45;999.90;;;;;;;;;;5032226;28;20080;-64
2023/12/12 09:49:25;;;;;;;1565.72;999.90;;;;;;;;;;5032218;28;20026;-64
2023/12/12 09:51:52;;;;;;;1550.78;999.90;;;;;;;;;;5032283;28;20463;-63
2023/12/12 09:54:19;;;;;;;1551.25;999.90;;;;;;;;;;5031073;28;20017;-63
2023/12/12 09:56:48;;;;;;;1565.32;999.90;;;;;;;;;;5032203;28;20019;-64
2023/12/12 09:59:15;;;;;;;1470.93;999.90;;;;;;;;;;5032000;28;20021;-64
2023/12/12 10:01:43;;;;;;;1570.38;999.90;;;;;;;;;;5031986;28;20030;-64
2023/12/12 10:04:11;;;;;;;1556.60;999.90;;;;;;;;;;5031859;28;20441;-63
2023/12/12 10:06:42;;;;;;;1568.13;999.90;;;;;;;;;;5035483;28;20048;-65
2023/12/12 10:09:09;;;;;;;1574.90;999.90;;;;;;;;;;5034251;28;20030;-65
2023/12/12 10:11:36;;;;;;;1582.05;999.90;;;;;;;;;;5035886;28;20465;-63
2023/12/12 10:14:03;;;;;;;1583.53;999.90;;;;;;;;;;5035624;28;20036;-62
2023/12/12 10:16:30;;;;;;;1578.88;999.90;;;;;;;;;;5035526;28;20044;-67
2023/12/12 10:19:01;;;;;;;1579.72;999.90;;;;;;;;;;5035539;28;20022;-65
2023/12/12 10:21:28;;;;;;;1575.35;999.90;;;;;;;;;;5034140;28;20152;-64
2023/12/12 10:23:55;;;;;;;1540.53;999.90;;;;;;;;;;5035465;28;20033;-63
2023/12/12 10:26:33;;;;;;;1579.03;999.90;;;;;;;;;;5036304;28;20025;-62
2023/12/12 10:29:00;;;;;;;1576.75;999.90;;;;;;;;;;5034003;28;20270;-63
2023/12/12 10:31:27;;;;;;;1574.13;999.90;;;;;;;;;;5036568;28;20018;-62
2023/12/12 10:33:56;;;;;;;1592.70;999.90;;;;;;;;;;5036420;28;20032;-64
2023/12/12 10:36:24;;;;;;;1591.68;999.90;;;;;;;;;;5036229;28;20028;-62
2023/12/12 10:38:51;;;;;;;1577.95;999.90;;;;;;;;;;5036848;28;20025;-63
2023/12/12 10:41:19;;;;;;;1591.47;999.90;;;;;;;;;;5036059;28;20416;-63
2023/12/12 10:43:47;;;;;;;1567.15;999.90;;;;;;;;;;5036177;28;20021;-64
2023/12/12 10:46:17;;;;;;;1563.90;999.90;;;;;;;;;;5035871;28;20153;-64
2023/12/12 10:48:44;;;;;;;1580.78;999.90;;;;;;;;;;5031508;28;20029;-64
2023/12/12 10:51:12;;;;;;;1575.95;999.90;;;;;;;;;;5035032;28;20067;-64
2023/12/12 10:53:40;;;;;;;1567.93;999.90;;;;;;;;;;5035577;28;20025;-64
2023/12/12 10:56:07;;;;;;;1470.57;999.90;;;;;;;;;;5066005;23;20095;-63
2023/12/12 10:58:35;;;;;;;1566.03;999.90;;;;;;;;;;5034607;28;20037;-63
2023/12/12 11:01:02;;;;;;;1559.68;999.90;;;;;;;;;;5035028;28;20048;-65
2023/12/12 11:03:30;;;;;;;1573.03;999.90;;;;;;;;;;5034860;28;20025;-63
2023/12/12 11:05:59;;;;;;;1550.60;999.90;;;;;;;;;;5034643;28;20057;-61
2023/12/12 11:08:28;;;;;;;1568.45;999.90;;;;;;;;;;5034766;28;20025;-63
2023/12/12 11:10:55;;;;;;;1563.43;999.90;;;;;;;;;;5034494;28;20209;-62
2023/12/12 11:13:22;;;;;;;1554.47;999.90;;;;;;;;;;5034684;28;20480;-64
2023/12/12 11:15:50;;;;;;;1446.72;999.90;;;;;;;;;;5034022;28;20021;-63
2023/12/12 11:18:20;;;;;;;1564.85;999.90;;;;;;;;;;5031949;28;20029;-65
2023/12/12 11:20:47;;;;;;;1566.50;999.90;;;;;;;;;;5027514;28;20433;-62
2023/12/12 11:23:34;;;;;;;1569.20;999.90;;;;;;;;;;5024557;28;20022;-64
2023/12/12 11:26:01;;;;;;;1589.78;999.90;;;;;;;;;;5023888;28;20083;-63
2023/12/12 11:28:28;;;;;;;1589.18;999.90;;;;;;;;;;5025021;28;20018;-66
2023/12/12 11:30:54;;;;;;;1567.13;999.90;;;;;;;;;;5023835;28;20268;-65
2023/12/12 11:33:21;;;;;;;1564.15;999.90;;;;;;;;;;5025771;28;20014;-65
2023/12/12 11:35:48;;;;;;;1565.22;999.90;;;;;;;;;;5028524;28;20273;-66
2023/12/12 11:38:34;;;;;;;1568.15;999.90;;;;;;;;;;5028204;28;20087;-64
2023/12/12 11:41:21;;;;;;;1574.40;999.90;;;;;;;;;;5029225;28;20030;-64
2023/12/12 11:43:47;;;;;;;1560.55;999.90;;;;;;;;;;5026552;28;20064;-65
2023/12/12 11:46:17;;;;;;;1599.70;999.90;;;;;;;;;;5028219;28;20021;-63
2023/12/12 11:48:43;;;;;;;1595.13;999.90;;;;;;;;;;5029220;28;20029;-67
2023/12/12 11:51:30;;;;;;;1546.40;999.90;;;;;;;;;;5020104;28;20014;-64
2023/12/12 11:53:56;;;;;;;1584.70;999.90;;;;;;;;;;5021461;28;20026;-64
2023/12/12 11:56:23;;;;;;;1576.03;999.90;;;;;;;;;;5027417;28;20049;-63
2023/12/12 11:58:52;;;;;;;1564.68;999.90;;;;;;;;;;5027839;28;20080;-64
2023/12/12 12:01:23;;;;;;;1549.35;999.90;;;;;;;;;;5027631;28;20026;-67
2023/12/12 12:03:50;;;;;;;1567.13;999.90;;;;;;;;;;5027622;28;20038;-64
2023/12/12 12:06:17;;;;;;;1567.40;999.90;;;;;;;;;;5023544;28;20044;-64
2023/12/12 12:08:43;;;;;;;1566.35;999.90;;;;;;;;;;5029508;28;20431;-65
2023/12/12 12:11:11;;;;;;;1531.40;999.90;;;;;;;;;;5026335;28;20021;-63
2023/12/12 12:13:38;;;;;;;1580.07;999.90;;;;;;;;;;5023861;28;20053;-65
2023/12/12 12:16:06;;;;;;;1441.70;999.90;;;;;;;;;;5024033;28;20030;-64
2023/12/12 12:18:33;;;;;;;1561.88;999.90;;;;;;;;;;5028607;28;20193;-65
2023/12/12 12:21:02;;;;;;;1590.60;999.90;;;;;;;;;;5028160;28;20474;-67
2023/12/12 12:23:29;;;;;;;1573.13;999.90;;;;;;;;;;5027375;28;20360;-66
2023/12/12 12:26:05;;;;;;;1564.55;999.90;;;;;;;;;;5028306;28;20065;-64
2023/12/12 12:28:32;;;;;;;1564.70;999.90;;;;;;;;;;5027965;28;20500;-65
2023/12/12 12:30:58;;;;;;;1569.30;999.90;;;;;;;;;;5026823;28;20064;-65
2023/12/12 12:33:45;;;;;;;1573.35;999.90;;;;;;;;;;5028325;28;20511;-65
2023/12/12 12:36:12;;;;;;;1546.05;999.90;;;;;;;;;;5025408;28;20037;-65
2023/12/12 12:38:38;;;;;;;1554.30;999.90;;;;;;;;;;5024404;28;20021;-64
2023/12/12 12:41:22;;;;;;;1558.07;999.90;;;;;;;;;;5031290;28;20497;-65
2023/12/12 12:43:54;;;;;;;1552.68;999.90;;;;;;;;;;5021118;28;20110;-65
2023/12/12 12:46:21;;;;;;;1576.82;999.90;;;;;;;;;;5027352;28;20021;-64
2023/12/12 12:48:50;;;;;;;1575.80;999.90;;;;;;;;;;5029336;28;20076;-65
2023/12/12 12:51:17;;;;;;;1577.28;999.90;;;;;;;;;;5024479;28;20105;-65
2023/12/12 12:53:46;;;;;;;1566.35;999.90;;;;;;;;;;5021893;28;20045;-65
2023/12/12 12:56:13;;;;;;;1570.63;999.90;;;;;;;;;;5023395;28;20473;-66
2023/12/12 12:58:40;;;;;;;1578.28;999.90;;;;;;;;;;5022350;28;20439;-68
2023/12/12 13:01:06;;;;;;;1527.85;999.90;;;;;;;;;;5021533;28;20446;-64
2023/12/12 13:03:33;;;;;;;1570.28;999.90;;;;;;;;;;5026384;28;20510;-65
2023/12/12 13:06:00;;;;;;;1555.82;999.90;;;;;;;;;;5021145;28;20402;-62
2023/12/12 13:08:27;;;;;;;1569.25;999.90;;;;;;;;;;5023000;28;20111;-67
2023/12/12 13:10:54;;;;;;;1554.78;999.90;;;;;;;;;;5003824;28;20496;-67
2023/12/12 13:13:20;;;;;;;1563.50;999.90;;;;;;;;;;5019503;28;20030;-66
2023/12/12 13:15:47;;;;;;;1561.88;999.90;;;;;;;;;;5016771;28;20025;-69
2023/12/12 13:18:14;;;;;;;1562.85;999.90;;;;;;;;;;5016918;28;20502;-67
2023/12/12 13:20:41;;;;;;;1552.53;999.90;;;;;;;;;;5017610;28;20033;-66
2023/12/12 13:23:07;;;;;;;1536.40;999.90;;;;;;;;;;5027368;28;20034;-66
2023/12/12 13:25:34;;;;;;;1553.22;999.90;;;;;;;;;;5024611;28;20021;-65
2023/12/12 13:28:01;;;;;;;1563.47;999.90;;;;;;;;;;5023554;28;20018;-64
2023/12/12 13:30:27;;;;;;;1550.55;999.90;;;;;;;;;;5022070;28;20025;-65
2023/12/12 13:32:54;;;;;;;1573.53;999.90;;;;;;;;;;5022349;28;20426;-65
2023/12/12 13:35:21;;;;;;;1569.22;999.90;;;;;;;;;;5023201;28;20022;-65
2023/12/12 13:37:48;;;;;;;1557.45;999.90;;;;;;;;;;5022415;28;20081;-65
2023/12/12 13:40:14;;;;;;;1550.93;999.90;;;;;;;;;;5025455;28;20026;-64
2023/12/12 13:42:41;;;;;;;1556.35;999.90;;;;;;;;;;5026484;28;20124;-66